PROFILE

 METAR AND TAF INFORMATION
ADDS - METARS form results

(0625 UTC 21 September 2018)
http://aviationweather.gov/metar/data/
 
TAF GOBD 210530Z 2106/2212 36010KT 9999 SCT015 PROB30 TEMPO 2108/2112 4000 TSRA BKN012 FEW025CB 

 AIRPORT MAP

 RUNWAY INFORMATION

 AIRPORT FREQUENCIES

 AIRPORT NEAR NAVIGATION AIDS